sensor_id;sensor_type;location;lat;lon;timestamp;temperature;humidity
22674;DHT22;11504;43.334;21.918;2023-04-01T00:04:18;16.6;100.0
22674;DHT22;11504;43.334;21.918;2023-04-01T00:08:55;16.7;100.0
22674;DHT22;11504;43.334;21.918;2023-04-01T00:13:32;16.7;100.0
22674;DHT22;11504;43.334;21.918;2023-04-01T00:18:11;16.8;100.0
22674;DHT22;11504;43.334;21.918;2023-04-01T00:22:49;16.8;100.0
22674;DHT22;11504;43.334;21.918;2023-04-01T00:27:26;16.8;100.0
22674;DHT22;11504;43.334;21.918;2023-04-01T00:32:04;16.8;100.0
22674;DHT22;11504;43.334;21.918;2023-04-01T00:36:41;16.8;100.0
22674;DHT22;11504;43.334;21.918;2023-04-01T00:41:20;16.8;100.0
22674;DHT22;11504;43.334;21.918;2023-04-01T00:45:57;16.8;100.0
22674;DHT22;11504;43.334;21.918;2023-04-01T00:50:40;16.8;100.0
22674;DHT22;11504;43.334;21.918;2023-04-01T00:55:45;16.9;100.0
22674;DHT22;11504;43.334;21.918;2023-04-01T01:00:38;16.9;100.0
22674;DHT22;11504;43.334;21.918;2023-04-01T01:05:29;16.9;100.0
22674;DHT22;11504;43.334;21.918;2023-04-01T01:10:50;16.9;100.0
22674;DHT22;11504;43.334;21.918;2023-04-01T01:15:40;16.9;100.0
22674;DHT22;11504;43.334;21.918;2023-04-01T01:21:21;16.9;100.0
22674;DHT22;11504;43.334;21.918;2023-04-01T01:26:44;16.7;100.0
22674;DHT22;11504;43.334;21.918;2023-04-01T01:31:44;16.7;100.0
22674;DHT22;11504;43.334;21.918;2023-04-01T01:36:33;16.5;100.0
22674;DHT22;11504;43.334;21.918;2023-04-01T01:41:18;16.5;100.0
22674;DHT22;11504;43.334;21.918;2023-04-01T01:46:09;16.3;100.0
22674;DHT22;11504;43.334;21.918;2023-04-01T01:50:53;16.3;100.0
22674;DHT22;11504;43.334;21.918;2023-04-01T01:55:37;16.1;100.0
22674;DHT22;11504;43.334;21.918;2023-04-01T02:00:19;16.1;100.0
22674;DHT22;11504;43.334;21.918;2023-04-01T02:04:59;16.0;100.0
22674;DHT22;11504;43.334;21.918;2023-04-01T02:09:39;16.0;100.0
22674;DHT22;11504;43.334;21.918;2023-04-01T02:14:23;16.0;100.0
22674;DHT22;11504;43.334;21.918;2023-04-01T02:19:09;16.0;100.0
22674;DHT22;11504;43.334;21.918;2023-04-01T02:23:48;16.0;100.0
22674;DHT22;11504;43.334;21.918;2023-04-01T02:28:29;15.9;100.0
22674;DHT22;11504;43.334;21.918;2023-04-01T02:33:08;15.9;100.0
22674;DHT22;11504;43.334;21.918;2023-04-01T02:37:49;15.8;100.0
22674;DHT22;11504;43.334;21.918;2023-04-01T02:42:26;15.8;100.0
22674;DHT22;11504;43.334;21.918;2023-04-01T02:47:03;15.6;100.0
22674;DHT22;11504;43.334;21.918;2023-04-01T02:51:39;15.6;100.0
22674;DHT22;11504;43.334;21.918;2023-04-01T02:56:16;15.5;100.0
22674;DHT22;11504;43.334;21.918;2023-04-01T03:00:52;15.5;100.0
22674;DHT22;11504;43.334;21.918;2023-04-01T03:05:29;15.4;100.0
22674;DHT22;11504;43.334;21.918;2023-04-01T03:10:09;15.4;100.0
22674;DHT22;11504;43.334;21.918;2023-04-01T03:14:46;15.2;100.0
22674;DHT22;11504;43.334;21.918;2023-04-01T03:19:23;15.2;100.0
22674;DHT22;11504;43.334;21.918;2023-04-01T03:23:59;15.2;100.0
22674;DHT22;11504;43.334;21.918;2023-04-01T03:28:37;15.0;100.0
22674;DHT22;11504;43.334;21.918;2023-04-01T03:33:13;15.0;100.0
22674;DHT22;11504;43.334;21.918;2023-04-01T03:37:52;14.9;100.0
22674;DHT22;11504;43.334;21.918;2023-04-01T03:42:30;14.9;100.0
22674;DHT22;11504;43.334;21.918;2023-04-01T03:47:07;15.0;100.0
22674;DHT22;11504;43.334;21.918;2023-04-01T03:51:44;15.0;100.0
22674;DHT22;11504;43.334;21.918;2023-04-01T03:56:20;15.1;100.0
22674;DHT22;11504;43.334;21.918;2023-04-01T04:00:57;15.1;100.0
22674;DHT22;11504;43.334;21.918;2023-04-01T04:05:33;15.2;100.0
22674;DHT22;11504;43.334;21.918;2023-04-01T04:10:10;15.2;100.0
22674;DHT22;11504;43.334;21.918;2023-04-01T04:14:46;15.3;100.0
22674;DHT22;11504;43.334;21.918;2023-04-01T04:19:23;15.3;100.0
22674;DHT22;11504;43.334;21.918;2023-04-01T04:24:01;15.3;100.0
22674;DHT22;11504;43.334;21.918;2023-04-01T04:28:40;15.4;100.0
22674;DHT22;11504;43.334;21.918;2023-04-01T04:33:17;15.4;100.0
22674;DHT22;11504;43.334;21.918;2023-04-01T04:37:53;15.5;100.0
22674;DHT22;11504;43.334;21.918;2023-04-01T04:42:30;15.5;100.0
22674;DHT22;11504;43.334;21.918;2023-04-01T04:47:06;15.4;100.0
22674;DHT22;11504;43.334;21.918;2023-04-01T04:51:43;15.4;100.0
22674;DHT22;11504;43.334;21.918;2023-04-01T04:56:22;15.4;100.0
22674;DHT22;11504;43.334;21.918;2023-04-01T05:00:58;15.4;100.0
22674;DHT22;11504;43.334;21.918;2023-04-01T05:05:34;15.4;100.0
22674;DHT22;11504;43.334;21.918;2023-04-01T05:10:11;15.4;100.0
22674;DHT22;11504;43.334;21.918;2023-04-01T05:14:47;15.4;100.0
22674;DHT22;11504;43.334;21.918;2023-04-01T05:19:23;15.5;100.0
22674;DHT22;11504;43.334;21.918;2023-04-01T05:23:59;15.5;100.0
22674;DHT22;11504;43.334;21.918;2023-04-01T05:28:36;15.3;100.0
22674;DHT22;11504;43.334;21.918;2023-04-01T05:33:15;15.3;100.0
22674;DHT22;11504;43.334;21.918;2023-04-01T05:37:52;15.1;100.0
22674;DHT22;11504;43.334;21.918;2023-04-01T05:42:29;15.1;100.0
22674;DHT22;11504;43.334;21.918;2023-04-01T05:47:06;15.0;100.0
22674;DHT22;11504;43.334;21.918;2023-04-01T05:51:44;15.0;100.0
22674;DHT22;11504;43.334;21.918;2023-04-01T05:56:20;14.8;100.0
22674;DHT22;11504;43.334;21.918;2023-04-01T06:01:03;14.8;100.0
22674;DHT22;11504;43.334;21.918;2023-04-01T06:05:45;15.0;100.0
22674;DHT22;11504;43.334;21.918;2023-04-01T06:10:49;15.0;100.0
22674;DHT22;11504;43.334;21.918;2023-04-01T06:15:59;15.2;100.0
22674;DHT22;11504;43.334;21.918;2023-04-01T06:21:08;15.2;100.0
22674;DHT22;11504;43.334;21.918;2023-04-01T06:26:18;15.4;100.0
22674;DHT22;11504;43.334;21.918;2023-04-01T06:31:20;15.4;100.0
22674;DHT22;11504;43.334;21.918;2023-04-01T06:36:40;15.5;100.0
22674;DHT22;11504;43.334;21.918;2023-04-01T06:42:06;15.5;100.0
22674;DHT22;11504;43.334;21.918;2023-04-01T06:47:03;15.6;100.0
22674;DHT22;11504;43.334;21.918;2023-04-01T06:52:16;15.6;100.0
22674;DHT22;11504;43.334;21.918;2023-04-01T06:57:24;15.8;100.0
22674;DHT22;11504;43.334;21.918;2023-04-01T07:02:34;15.8;100.0
22674;DHT22;11504;43.334;21.918;2023-04-01T07:07:35;15.8;100.0
22674;DHT22;11504;43.334;21.918;2023-04-01T07:12:41;15.8;100.0
22674;DHT22;11504;43.334;21.918;2023-04-01T07:17:36;15.9;100.0
22674;DHT22;11504;43.334;21.918;2023-04-01T07:22:33;15.9;100.0
22674;DHT22;11504;43.334;21.918;2023-04-01T07:27:15;15.9;100.0
22674;DHT22;11504;43.334;21.918;2023-04-01T07:32:22;15.9;100.0
22674;DHT22;11504;43.334;21.918;2023-04-01T07:37:33;15.9;100.0
22674;DHT22;11504;43.334;21.918;2023-04-01T07:42:40;15.9;100.0
22674;DHT22;11504;43.334;21.918;2023-04-01T07:47:55;16.0;100.0
22674;DHT22;11504;43.334;21.918;2023-04-01T07:53:00;16.0;100.0
22674;DHT22;11504;43.334;21.918;2023-04-01T07:57:58;16.1;100.0
22674;DHT22;11504;43.334;21.918;2023-04-01T08:03:17;16.1;100.0
22674;DHT22;11504;43.334;21.918;2023-04-01T08:08:34;16.0;100.0
22674;DHT22;11504;43.334;21.918;2023-04-01T08:14:00;16.0;100.0
22674;DHT22;11504;43.334;21.918;2023-04-01T08:19:27;16.0;100.0
22674;DHT22;11504;43.334;21.918;2023-04-01T08:24:44;16.0;100.0
22674;DHT22;11504;43.334;21.918;2023-04-01T08:29:48;15.8;100.0
22674;DHT22;11504;43.334;21.918;2023-04-01T08:34:51;15.8;100.0
22674;DHT22;11504;43.334;21.918;2023-04-01T08:40:00;15.6;100.0
22674;DHT22;11504;43.334;21.918;2023-04-01T08:45:51;15.6;100.0
22674;DHT22;11504;43.334;21.918;2023-04-01T08:51:57;15.6;100.0
22674;DHT22;11504;43.334;21.918;2023-04-01T08:57:13;15.5;100.0
22674;DHT22;11504;43.334;21.918;2023-04-01T09:02:45;15.5;100.0
22674;DHT22;11504;43.334;21.918;2023-04-01T09:07:52;15.4;100.0
22674;DHT22;11504;43.334;21.918;2023-04-01T09:13:08;15.4;100.0
22674;DHT22;11504;43.334;21.918;2023-04-01T09:18:28;15.3;100.0
22674;DHT22;11504;43.334;21.918;2023-04-01T09:23:48;15.3;100.0
22674;DHT22;11504;43.334;21.918;2023-04-01T09:28:53;15.2;100.0
22674;DHT22;11504;43.334;21.918;2023-04-01T09:34:30;15.2;100.0
22674;DHT22;11504;43.334;21.918;2023-04-01T09:39:43;15.0;100.0
22674;DHT22;11504;43.334;21.918;2023-04-01T09:45:00;15.0;100.0
22674;DHT22;11504;43.334;21.918;2023-04-01T09:50:32;15.0;100.0
22674;DHT22;11504;43.334;21.918;2023-04-01T09:58:53;15.1;100.0
22674;DHT22;11504;43.334;21.918;2023-04-01T10:09:21;15.0;100.0
22674;DHT22;11504;43.334;21.918;2023-04-01T10:22:20;15.0;100.0
22674;DHT22;11504;43.334;21.918;2023-04-01T10:28:08;14.8;100.0
22674;DHT22;11504;43.334;21.918;2023-04-01T10:34:17;14.8;100.0
22674;DHT22;11504;43.334;21.918;2023-04-01T10:42:30;14.5;100.0
22674;DHT22;11504;43.334;21.918;2023-04-01T10:51:17;14.4;100.0
22674;DHT22;11504;43.334;21.918;2023-04-01T10:56:40;14.4;100.0
22674;DHT22;11504;43.334;21.918;2023-04-01T11:02:37;14.4;100.0
22674;DHT22;11504;43.334;21.918;2023-04-01T11:10:26;14.6;100.0
22674;DHT22;11504;43.334;21.918;2023-04-01T11:18:54;14.9;100.0
22674;DHT22;11504;43.334;21.918;2023-04-01T11:26:07;15.6;100.0
22674;DHT22;11504;43.334;21.918;2023-04-01T11:31:43;15.6;100.0
22674;DHT22;11504;43.334;21.918;2023-04-01T11:36:55;16.3;100.0
22674;DHT22;11504;43.334;21.918;2023-04-01T11:41:52;16.3;100.0
22674;DHT22;11504;43.334;21.918;2023-04-01T11:47:03;16.8;100.0
22674;DHT22;11504;43.334;21.918;2023-04-01T11:52:22;16.8;100.0
22674;DHT22;11504;43.334;21.918;2023-04-01T11:57:46;17.3;100.0
22674;DHT22;11504;43.334;21.918;2023-04-01T12:02:55;17.3;100.0
22674;DHT22;11504;43.334;21.918;2023-04-01T12:08:13;16.9;100.0
22674;DHT22;11504;43.334;21.918;2023-04-01T12:13:43;16.9;100.0
22674;DHT22;11504;43.334;21.918;2023-04-01T12:18:51;16.5;100.0
22674;DHT22;11504;43.334;21.918;2023-04-01T12:24:45;16.5;100.0
22674;DHT22;11504;43.334;21.918;2023-04-01T12:32:03;16.6;100.0
22674;DHT22;11504;43.334;21.918;2023-04-01T12:37:19;16.7;100.0
22674;DHT22;11504;43.334;21.918;2023-04-01T12:42:38;16.7;100.0
22674;DHT22;11504;43.334;21.918;2023-04-01T12:48:15;17.0;100.0
22674;DHT22;11504;43.334;21.918;2023-04-01T12:56:44;17.3;100.0
22674;DHT22;11504;43.334;21.918;2023-04-01T13:02:34;17.3;100.0
22674;DHT22;11504;43.334;21.918;2023-04-01T13:08:19;17.2;100.0
22674;DHT22;11504;43.334;21.918;2023-04-01T13:14:08;17.2;100.0
22674;DHT22;11504;43.334;21.918;2023-04-01T13:19:33;17.2;100.0
22674;DHT22;11504;43.334;21.918;2023-04-01T13:24:45;17.2;100.0
22674;DHT22;11504;43.334;21.918;2023-04-01T13:29:38;17.2;100.0
22674;DHT22;11504;43.334;21.918;2023-04-01T13:34:56;17.2;100.0
22674;DHT22;11504;43.334;21.918;2023-04-01T13:40:44;17.2;100.0
22674;DHT22;11504;43.334;21.918;2023-04-01T13:46:16;16.0;100.0
22674;DHT22;11504;43.334;21.918;2023-04-01T13:51:53;16.0;100.0
22674;DHT22;11504;43.334;21.918;2023-04-01T13:57:20;14.7;100.0
22674;DHT22;11504;43.334;21.918;2023-04-01T14:03:08;14.7;100.0
22674;DHT22;11504;43.334;21.918;2023-04-01T14:08:55;14.2;100.0
22674;DHT22;11504;43.334;21.918;2023-04-01T14:14:36;14.2;100.0
22674;DHT22;11504;43.334;21.918;2023-04-01T14:20:26;13.7;100.0
22674;DHT22;11504;43.334;21.918;2023-04-01T14:25:58;14.0;100.0
22674;DHT22;11504;43.334;21.918;2023-04-01T14:33:28;14.0;100.0
22674;DHT22;11504;43.334;21.918;2023-04-01T14:38:47;14.3;100.0
22674;DHT22;11504;43.334;21.918;2023-04-01T14:44:18;14.3;100.0
22674;DHT22;11504;43.334;21.918;2023-04-01T14:49:35;14.3;100.0
22674;DHT22;11504;43.334;21.918;2023-04-01T14:54:33;14.3;100.0
22674;DHT22;11504;43.334;21.918;2023-04-01T14:59:29;14.3;100.0
22674;DHT22;11504;43.334;21.918;2023-04-01T15:04:49;14.3;100.0
22674;DHT22;11504;43.334;21.918;2023-04-01T15:10:19;14.4;100.0
22674;DHT22;11504;43.334;21.918;2023-04-01T15:16:15;14.4;100.0
22674;DHT22;11504;43.334;21.918;2023-04-01T15:21:44;14.4;100.0
22674;DHT22;11504;43.334;21.918;2023-04-01T15:27:32;14.0;100.0
22674;DHT22;11504;43.334;21.918;2023-04-01T15:33:01;14.0;100.0
22674;DHT22;11504;43.334;21.918;2023-04-01T15:38:40;13.7;100.0
22674;DHT22;11504;43.334;21.918;2023-04-01T15:43:42;13.7;100.0
22674;DHT22;11504;43.334;21.918;2023-04-01T15:49:00;13.7;100.0
22674;DHT22;11504;43.334;21.918;2023-04-01T15:54:24;13.7;100.0
22674;DHT22;11504;43.334;21.918;2023-04-01T16:00:08;13.7;100.0
22674;DHT22;11504;43.334;21.918;2023-04-01T16:05:00;13.7;100.0
22674;DHT22;11504;43.334;21.918;2023-04-01T16:10:21;13.6;100.0
22674;DHT22;11504;43.334;21.918;2023-04-01T16:15:35;13.6;100.0
22674;DHT22;11504;43.334;21.918;2023-04-01T16:20:43;13.6;100.0
22674;DHT22;11504;43.334;21.918;2023-04-01T16:25:45;13.6;100.0
22674;DHT22;11504;43.334;21.918;2023-04-01T16:30:58;13.6;100.0
22674;DHT22;11504;43.334;21.918;2023-04-01T16:36:10;13.5;100.0
22674;DHT22;11504;43.334;21.918;2023-04-01T16:41:24;13.5;100.0
22674;DHT22;11504;43.334;21.918;2023-04-01T16:46:33;13.5;100.0
22674;DHT22;11504;43.334;21.918;2023-04-01T16:51:19;13.5;100.0
22674;DHT22;11504;43.334;21.918;2023-04-01T16:56:16;13.5;100.0
22674;DHT22;11504;43.334;21.918;2023-04-01T17:01:12;13.5;100.0
22674;DHT22;11504;43.334;21.918;2023-04-01T17:06:30;13.5;100.0
22674;DHT22;11504;43.334;21.918;2023-04-01T17:11:26;13.5;100.0
22674;DHT22;11504;43.334;21.918;2023-04-01T17:16:54;13.5;100.0
22674;DHT22;11504;43.334;21.918;2023-04-01T17:22:07;13.5;100.0
22674;DHT22;11504;43.334;21.918;2023-04-01T17:27:13;13.4;100.0
22674;DHT22;11504;43.334;21.918;2023-04-01T17:32:14;13.4;100.0
22674;DHT22;11504;43.334;21.918;2023-04-01T17:37:34;13.4;100.0
22674;DHT22;11504;43.334;21.918;2023-04-01T17:42:58;13.4;100.0
22674;DHT22;11504;43.334;21.918;2023-04-01T17:48:24;13.2;100.0
22674;DHT22;11504;43.334;21.918;2023-04-01T17:53:50;13.2;100.0
22674;DHT22;11504;43.334;21.918;2023-04-01T17:59:31;12.9;100.0
22674;DHT22;11504;43.334;21.918;2023-04-01T18:05:18;12.9;100.0
22674;DHT22;11504;43.334;21.918;2023-04-01T18:11:05;12.8;100.0
22674;DHT22;11504;43.334;21.918;2023-04-01T18:16:46;12.7;100.0
22674;DHT22;11504;43.334;21.918;2023-04-01T18:22:21;12.7;100.0
22674;DHT22;11504;43.334;21.918;2023-04-01T18:27:24;12.6;100.0
22674;DHT22;11504;43.334;21.918;2023-04-01T18:32:32;12.6;100.0
22674;DHT22;11504;43.334;21.918;2023-04-01T18:37:28;12.6;100.0
22674;DHT22;11504;43.334;21.918;2023-04-01T18:42:41;12.6;100.0
22674;DHT22;11504;43.334;21.918;2023-04-01T18:47:41;12.7;100.0
22674;DHT22;11504;43.334;21.918;2023-04-01T18:52:32;12.7;100.0
22674;DHT22;11504;43.334;21.918;2023-04-01T18:57:19;12.8;100.0
22674;DHT22;11504;43.334;21.918;2023-04-01T19:02:19;12.8;100.0
22674;DHT22;11504;43.334;21.918;2023-04-01T19:07:48;12.8;100.0
22674;DHT22;11504;43.334;21.918;2023-04-01T19:12:56;12.8;100.0
22674;DHT22;11504;43.334;21.918;2023-04-01T19:18:54;12.9;100.0
22674;DHT22;11504;43.334;21.918;2023-04-01T19:24:42;12.9;100.0
22674;DHT22;11504;43.334;21.918;2023-04-01T19:30:41;12.8;100.0
22674;DHT22;11504;43.334;21.918;2023-04-01T19:35:52;12.8;100.0
22674;DHT22;11504;43.334;21.918;2023-04-01T19:41:01;12.8;100.0
22674;DHT22;11504;43.334;21.918;2023-04-01T19:46:19;12.8;100.0
22674;DHT22;11504;43.334;21.918;2023-04-01T19:51:20;12.8;100.0
22674;DHT22;11504;43.334;21.918;2023-04-01T19:56:19;12.7;100.0
22674;DHT22;11504;43.334;21.918;2023-04-01T20:01:03;12.7;100.0
22674;DHT22;11504;43.334;21.918;2023-04-01T20:06:07;12.6;100.0
22674;DHT22;11504;43.334;21.918;2023-04-01T20:11:14;12.6;100.0
22674;DHT22;11504;43.334;21.918;2023-04-01T20:16:09;12.5;100.0
22674;DHT22;11504;43.334;21.918;2023-04-01T20:21:05;12.5;100.0
22674;DHT22;11504;43.334;21.918;2023-04-01T20:26:07;12.4;100.0
22674;DHT22;11504;43.334;21.918;2023-04-01T20:31:21;12.4;100.0
22674;DHT22;11504;43.334;21.918;2023-04-01T20:36:26;12.3;100.0
22674;DHT22;11504;43.334;21.918;2023-04-01T20:41:54;12.3;100.0
22674;DHT22;11504;43.334;21.918;2023-04-01T20:47:42;12.2;100.0
22674;DHT22;11504;43.334;21.918;2023-04-01T20:53:17;12.2;100.0
22674;DHT22;11504;43.334;21.918;2023-04-01T20:58:35;12.0;100.0
22674;DHT22;11504;43.334;21.918;2023-04-01T21:04:27;12.0;100.0
22674;DHT22;11504;43.334;21.918;2023-04-01T21:09:53;11.8;100.0
22674;DHT22;11504;43.334;21.918;2023-04-01T21:15:22;11.8;100.0
22674;DHT22;11504;43.334;21.918;2023-04-01T21:21:20;11.7;100.0
22674;DHT22;11504;43.334;21.918;2023-04-01T21:27:02;11.7;100.0
22674;DHT22;11504;43.334;21.918;2023-04-01T21:32:32;11.7;100.0
22674;DHT22;11504;43.334;21.918;2023-04-01T21:38:10;11.7;100.0
22674;DHT22;11504;43.334;21.918;2023-04-01T21:44:05;11.7;100.0
22674;DHT22;11504;43.334;21.918;2023-04-01T21:50:28;11.6;100.0
22674;DHT22;11504;43.334;21.918;2023-04-01T22:00:07;11.6;100.0
22674;DHT22;11504;43.334;21.918;2023-04-01T22:05:10;11.6;100.0
22674;DHT22;11504;43.334;21.918;2023-04-01T22:10:32;11.4;100.0
22674;DHT22;11504;43.334;21.918;2023-04-01T22:16:00;11.3;100.0
22674;DHT22;11504;43.334;21.918;2023-04-01T22:21:13;11.3;100.0
22674;DHT22;11504;43.334;21.918;2023-04-01T22:26:19;11.2;100.0
22674;DHT22;11504;43.334;21.918;2023-04-01T22:31:20;11.2;100.0
22674;DHT22;11504;43.334;21.918;2023-04-01T22:36:31;11.0;100.0
22674;DHT22;11504;43.334;21.918;2023-04-01T22:41:36;11.0;100.0
22674;DHT22;11504;43.334;21.918;2023-04-01T22:46:48;10.8;100.0
22674;DHT22;11504;43.334;21.918;2023-04-01T22:51:43;10.8;100.0
22674;DHT22;11504;43.334;21.918;2023-04-01T22:56:40;10.6;100.0
22674;DHT22;11504;43.334;21.918;2023-04-01T23:01:34;10.6;100.0
22674;DHT22;11504;43.334;21.918;2023-04-01T23:06:33;10.5;100.0
22674;DHT22;11504;43.334;21.918;2023-04-01T23:11:26;10.5;100.0
22674;DHT22;11504;43.334;21.918;2023-04-01T23:16:12;10.4;100.0
22674;DHT22;11504;43.334;21.918;2023-04-01T23:21:16;10.4;100.0
22674;DHT22;11504;43.334;21.918;2023-04-01T23:26:24;10.2;100.0
22674;DHT22;11504;43.334;21.918;2023-04-01T23:31:39;10.2;100.0
22674;DHT22;11504;43.334;21.918;2023-04-01T23:36:19;10.1;100.0
22674;DHT22;11504;43.334;21.918;2023-04-01T23:40:56;10.1;100.0
22674;DHT22;11504;43.334;21.918;2023-04-01T23:45:33;10.1;100.0
22674;DHT22;11504;43.334;21.918;2023-04-01T23:50:18;9.8;100.0
22674;DHT22;11504;43.334;21.918;2023-04-01T23:55:19;9.8;100.0
